sensor_id;sensor_type;location;lat;lon;timestamp;P1;durP1;ratioP1;P2;durP2;ratioP2
50757;SDS011;36732;47.980;11.652;2023-02-22T00:00:20;1.77;;;1.58;;
50757;SDS011;36732;47.980;11.652;2023-02-22T00:02:54;2.30;;;1.40;;
50757;SDS011;36732;47.980;11.652;2023-02-22T00:05:24;1.80;;;1.48;;
50757;SDS011;36732;47.980;11.652;2023-02-22T00:07:52;2.22;;;1.48;;
50757;SDS011;36732;47.980;11.652;2023-02-22T00:10:23;1.65;;;1.10;;
50757;SDS011;36732;47.980;11.652;2023-02-22T00:12:50;1.80;;;1.30;;
50757;SDS011;36732;47.980;11.652;2023-02-22T00:15:19;1.58;;;1.33;;
50757;SDS011;36732;47.980;11.652;2023-02-22T00:17:51;2.40;;;1.42;;
50757;SDS011;36732;47.980;11.652;2023-02-22T00:20:18;2.30;;;1.40;;
50757;SDS011;36732;47.980;11.652;2023-02-22T00:22:47;1.73;;;1.10;;
50757;SDS011;36732;47.980;11.652;2023-02-22T00:25:16;3.60;;;1.75;;
50757;SDS011;36732;47.980;11.652;2023-02-22T00:27:44;3.67;;;1.70;;
50757;SDS011;36732;47.980;11.652;2023-02-22T00:30:16;2.10;;;1.30;;
50757;SDS011;36732;47.980;11.652;2023-02-22T00:32:50;1.90;;;1.30;;
50757;SDS011;36732;47.980;11.652;2023-02-22T00:35:19;1.92;;;1.33;;
50757;SDS011;36732;47.980;11.652;2023-02-22T00:37:47;2.60;;;1.40;;
50757;SDS011;36732;47.980;11.652;2023-02-22T00:40:22;1.35;;;1.10;;
50757;SDS011;36732;47.980;11.652;2023-02-22T00:42:51;2.85;;;1.38;;
50757;SDS011;36732;47.980;11.652;2023-02-22T00:45:19;1.73;;;1.30;;
50757;SDS011;36732;47.980;11.652;2023-02-22T00:47:48;1.98;;;1.20;;
50757;SDS011;36732;47.980;11.652;2023-02-22T00:50:16;3.75;;;1.30;;
50757;SDS011;36732;47.980;11.652;2023-02-22T00:52:42;1.63;;;1.50;;
50757;SDS011;36732;47.980;11.652;2023-02-22T00:55:10;2.80;;;1.55;;
50757;SDS011;36732;47.980;11.652;2023-02-22T00:57:41;1.83;;;1.43;;
50757;SDS011;36732;47.980;11.652;2023-02-22T01:00:08;2.28;;;1.40;;
50757;SDS011;36732;47.980;11.652;2023-02-22T01:02:44;2.80;;;1.40;;
50757;SDS011;36732;47.980;11.652;2023-02-22T01:05:14;4.00;;;1.40;;
50757;SDS011;36732;47.980;11.652;2023-02-22T01:07:45;2.67;;;1.42;;
50757;SDS011;36732;47.980;11.652;2023-02-22T01:10:12;1.60;;;1.20;;
50757;SDS011;36732;47.980;11.652;2023-02-22T01:12:38;1.95;;;1.55;;
50757;SDS011;36732;47.980;11.652;2023-02-22T01:15:06;1.42;;;1.23;;
50757;SDS011;36732;47.980;11.652;2023-02-22T01:17:36;2.20;;;1.48;;
50757;SDS011;36732;47.980;11.652;2023-02-22T01:20:05;1.00;;;0.90;;
50757;SDS011;36732;47.980;11.652;2023-02-22T01:22:39;1.50;;;0.90;;
50757;SDS011;36732;47.980;11.652;2023-02-22T01:25:06;1.83;;;1.50;;
50757;SDS011;36732;47.980;11.652;2023-02-22T01:27:33;1.98;;;1.48;;
50757;SDS011;36732;47.980;11.652;2023-02-22T01:29:59;2.67;;;1.60;;
50757;SDS011;36732;47.980;11.652;2023-02-22T01:32:25;1.73;;;1.25;;
50757;SDS011;36732;47.980;11.652;2023-02-22T01:34:52;2.05;;;1.25;;
50757;SDS011;36732;47.980;11.652;2023-02-22T01:37:18;2.05;;;1.10;;
50757;SDS011;36732;47.980;11.652;2023-02-22T01:39:44;2.28;;;1.00;;
50757;SDS011;36732;47.980;11.652;2023-02-22T01:42:10;1.92;;;1.10;;
50757;SDS011;36732;47.980;11.652;2023-02-22T01:44:36;3.08;;;1.58;;
50757;SDS011;36732;47.980;11.652;2023-02-22T01:47:05;2.03;;;1.20;;
50757;SDS011;36732;47.980;11.652;2023-02-22T01:52:09;1.38;;;1.10;;
50757;SDS011;36732;47.980;11.652;2023-02-22T01:54:41;1.63;;;1.30;;
50757;SDS011;36732;47.980;11.652;2023-02-22T01:57:19;1.95;;;1.58;;
50757;SDS011;36732;47.980;11.652;2023-02-22T01:59:55;1.60;;;0.93;;
50757;SDS011;36732;47.980;11.652;2023-02-22T02:02:34;1.52;;;1.02;;
50757;SDS011;36732;47.980;11.652;2023-02-22T02:05:06;1.40;;;1.10;;
50757;SDS011;36732;47.980;11.652;2023-02-22T02:07:33;1.95;;;1.10;;
50757;SDS011;36732;47.980;11.652;2023-02-22T02:10:01;1.30;;;0.80;;
50757;SDS011;36732;47.980;11.652;2023-02-22T02:12:38;2.17;;;1.30;;
50757;SDS011;36732;47.980;11.652;2023-02-22T02:15:15;1.65;;;1.00;;
50757;SDS011;36732;47.980;11.652;2023-02-22T02:17:44;1.50;;;0.75;;
50757;SDS011;36732;47.980;11.652;2023-02-22T02:23:44;2.38;;;1.02;;
50757;SDS011;36732;47.980;11.652;2023-02-22T02:26:57;1.73;;;0.82;;
50757;SDS011;36732;47.980;11.652;2023-02-22T02:32:44;1.25;;;0.75;;
50757;SDS011;36732;47.980;11.652;2023-02-22T02:38:32;1.42;;;0.90;;
50757;SDS011;36732;47.980;11.652;2023-02-22T02:43:53;1.70;;;0.98;;
50757;SDS011;36732;47.980;11.652;2023-02-22T02:46:45;0.93;;;0.85;;
50757;SDS011;36732;47.980;11.652;2023-02-22T02:49:46;0.80;;;0.65;;
50757;SDS011;36732;47.980;11.652;2023-02-22T02:52:22;0.73;;;0.73;;
50757;SDS011;36732;47.980;11.652;2023-02-22T02:54:50;0.95;;;0.85;;
50757;SDS011;36732;47.980;11.652;2023-02-22T02:57:18;1.13;;;0.85;;
50757;SDS011;36732;47.980;11.652;2023-02-22T02:59:44;1.30;;;1.00;;
50757;SDS011;36732;47.980;11.652;2023-02-22T03:10:58;1.50;;;0.90;;
50757;SDS011;36732;47.980;11.652;2023-02-22T03:13:49;1.30;;;1.02;;
50757;SDS011;36732;47.980;11.652;2023-02-22T03:16:58;1.25;;;0.85;;
50757;SDS011;36732;47.980;11.652;2023-02-22T03:20:00;1.25;;;0.90;;
50757;SDS011;36732;47.980;11.652;2023-02-22T03:22:42;0.88;;;0.77;;
50757;SDS011;36732;47.980;11.652;2023-02-22T03:25:23;2.53;;;1.05;;
50757;SDS011;36732;47.980;11.652;2023-02-22T03:27:59;2.38;;;1.10;;
50757;SDS011;36732;47.980;11.652;2023-02-22T03:30:46;1.50;;;0.77;;
50757;SDS011;36732;47.980;11.652;2023-02-22T03:33:18;1.15;;;0.70;;
50757;SDS011;36732;47.980;11.652;2023-02-22T03:35:59;2.45;;;0.88;;
50757;SDS011;36732;47.980;11.652;2023-02-22T03:38:36;0.90;;;0.73;;
50757;SDS011;36732;47.980;11.652;2023-02-22T03:41:04;1.17;;;1.08;;
50757;SDS011;36732;47.980;11.652;2023-02-22T03:43:34;1.48;;;1.17;;
50757;SDS011;36732;47.980;11.652;2023-02-22T03:46:08;1.45;;;1.33;;
50757;SDS011;36732;47.980;11.652;2023-02-22T03:48:45;1.63;;;1.52;;
50757;SDS011;36732;47.980;11.652;2023-02-22T03:51:18;2.17;;;1.85;;
50757;SDS011;36732;47.980;11.652;2023-02-22T03:53:45;2.55;;;2.35;;
50757;SDS011;36732;47.980;11.652;2023-02-22T03:56:12;2.95;;;2.75;;
50757;SDS011;36732;47.980;11.652;2023-02-22T03:58:46;2.63;;;2.42;;
50757;SDS011;36732;47.980;11.652;2023-02-22T04:01:13;2.10;;;1.23;;
50757;SDS011;36732;47.980;11.652;2023-02-22T04:03:39;1.35;;;1.08;;
50757;SDS011;36732;47.980;11.652;2023-02-22T04:06:06;1.13;;;1.02;;
50757;SDS011;36732;47.980;11.652;2023-02-22T04:08:33;2.67;;;1.30;;
50757;SDS011;36732;47.980;11.652;2023-02-22T04:10:59;1.60;;;0.98;;
50757;SDS011;36732;47.980;11.652;2023-02-22T04:13:25;1.45;;;0.90;;
50757;SDS011;36732;47.980;11.652;2023-02-22T04:15:52;1.48;;;1.08;;
50757;SDS011;36732;47.980;11.652;2023-02-22T04:18:17;1.75;;;1.10;;
50757;SDS011;36732;47.980;11.652;2023-02-22T04:20:43;1.50;;;1.00;;
50757;SDS011;36732;47.980;11.652;2023-02-22T04:23:09;2.75;;;1.10;;
50757;SDS011;36732;47.980;11.652;2023-02-22T04:25:36;2.47;;;0.90;;
50757;SDS011;36732;47.980;11.652;2023-02-22T04:28:01;3.63;;;1.20;;
50757;SDS011;36732;47.980;11.652;2023-02-22T04:30:27;1.35;;;1.13;;
50757;SDS011;36732;47.980;11.652;2023-02-22T04:32:54;1.30;;;1.08;;
50757;SDS011;36732;47.980;11.652;2023-02-22T04:35:20;2.20;;;1.20;;
50757;SDS011;36732;47.980;11.652;2023-02-22T04:37:47;2.05;;;1.05;;
50757;SDS011;36732;47.980;11.652;2023-02-22T04:40:12;1.58;;;0.93;;
50757;SDS011;36732;47.980;11.652;2023-02-22T04:42:40;1.20;;;1.10;;
50757;SDS011;36732;47.980;11.652;2023-02-22T04:45:06;2.05;;;1.05;;
50757;SDS011;36732;47.980;11.652;2023-02-22T04:47:33;1.65;;;1.20;;
50757;SDS011;36732;47.980;11.652;2023-02-22T04:50:01;2.00;;;1.13;;
50757;SDS011;36732;47.980;11.652;2023-02-22T04:52:29;2.17;;;1.30;;
50757;SDS011;36732;47.980;11.652;2023-02-22T04:54:54;1.67;;;1.40;;
50757;SDS011;36732;47.980;11.652;2023-02-22T04:57:20;2.60;;;1.27;;
50757;SDS011;36732;47.980;11.652;2023-02-22T04:59:46;5.65;;;2.33;;
50757;SDS011;36732;47.980;11.652;2023-02-22T05:02:11;3.88;;;1.88;;
50757;SDS011;36732;47.980;11.652;2023-02-22T05:04:37;3.58;;;1.63;;
50757;SDS011;36732;47.980;11.652;2023-02-22T05:07:03;2.20;;;1.40;;
50757;SDS011;36732;47.980;11.652;2023-02-22T05:09:29;1.85;;;1.38;;
50757;SDS011;36732;47.980;11.652;2023-02-22T05:11:55;2.55;;;1.67;;
50757;SDS011;36732;47.980;11.652;2023-02-22T05:14:21;1.77;;;1.50;;
50757;SDS011;36732;47.980;11.652;2023-02-22T05:16:50;5.38;;;1.70;;
50757;SDS011;36732;47.980;11.652;2023-02-22T05:19:17;2.33;;;1.67;;
50757;SDS011;36732;47.980;11.652;2023-02-22T05:21:43;3.10;;;2.03;;
50757;SDS011;36732;47.980;11.652;2023-02-22T05:24:09;3.47;;;2.10;;
50757;SDS011;36732;47.980;11.652;2023-02-22T05:26:34;3.22;;;1.90;;
50757;SDS011;36732;47.980;11.652;2023-02-22T05:29:00;4.68;;;2.30;;
50757;SDS011;36732;47.980;11.652;2023-02-22T05:31:26;3.97;;;2.30;;
50757;SDS011;36732;47.980;11.652;2023-02-22T05:33:51;4.05;;;2.00;;
50757;SDS011;36732;47.980;11.652;2023-02-22T05:36:17;4.43;;;1.90;;
50757;SDS011;36732;47.980;11.652;2023-02-22T05:38:43;3.30;;;1.40;;
50757;SDS011;36732;47.980;11.652;2023-02-22T05:41:12;1.50;;;1.30;;
50757;SDS011;36732;47.980;11.652;2023-02-22T05:43:38;3.20;;;1.52;;
50757;SDS011;36732;47.980;11.652;2023-02-22T05:46:04;6.53;;;1.45;;
50757;SDS011;36732;47.980;11.652;2023-02-22T05:48:30;2.47;;;1.90;;
50757;SDS011;36732;47.980;11.652;2023-02-22T05:50:56;2.13;;;1.38;;
50757;SDS011;36732;47.980;11.652;2023-02-22T05:53:22;5.60;;;2.05;;
50757;SDS011;36732;47.980;11.652;2023-02-22T05:55:49;2.65;;;1.92;;
50757;SDS011;36732;47.980;11.652;2023-02-22T05:58:16;3.78;;;1.85;;
50757;SDS011;36732;47.980;11.652;2023-02-22T06:00:42;2.53;;;1.98;;
50757;SDS011;36732;47.980;11.652;2023-02-22T06:03:08;3.28;;;1.80;;
50757;SDS011;36732;47.980;11.652;2023-02-22T06:05:35;5.70;;;1.98;;
50757;SDS011;36732;47.980;11.652;2023-02-22T06:08:02;3.13;;;1.33;;
50757;SDS011;36732;47.980;11.652;2023-02-22T06:10:29;2.00;;;1.50;;
50757;SDS011;36732;47.980;11.652;2023-02-22T06:12:56;2.03;;;1.50;;
50757;SDS011;36732;47.980;11.652;2023-02-22T06:15:23;4.85;;;1.83;;
50757;SDS011;36732;47.980;11.652;2023-02-22T06:17:50;2.78;;;2.00;;
50757;SDS011;36732;47.980;11.652;2023-02-22T06:20:18;3.72;;;2.00;;
50757;SDS011;36732;47.980;11.652;2023-02-22T06:22:47;3.25;;;1.80;;
50757;SDS011;36732;47.980;11.652;2023-02-22T06:25:15;3.55;;;1.80;;
50757;SDS011;36732;47.980;11.652;2023-02-22T06:27:43;4.30;;;2.10;;
50757;SDS011;36732;47.980;11.652;2023-02-22T06:30:09;2.90;;;1.75;;
50757;SDS011;36732;47.980;11.652;2023-02-22T06:32:36;2.72;;;1.98;;
50757;SDS011;36732;47.980;11.652;2023-02-22T06:35:02;5.05;;;2.00;;
50757;SDS011;36732;47.980;11.652;2023-02-22T06:37:28;6.28;;;1.77;;
50757;SDS011;36732;47.980;11.652;2023-02-22T06:39:54;2.65;;;1.90;;
50757;SDS011;36732;47.980;11.652;2023-02-22T06:42:20;4.28;;;1.42;;
50757;SDS011;36732;47.980;11.652;2023-02-22T06:44:45;2.33;;;1.83;;
50757;SDS011;36732;47.980;11.652;2023-02-22T06:47:11;3.67;;;1.92;;
50757;SDS011;36732;47.980;11.652;2023-02-22T06:49:37;2.47;;;1.88;;
50757;SDS011;36732;47.980;11.652;2023-02-22T06:52:03;2.88;;;1.80;;
50757;SDS011;36732;47.980;11.652;2023-02-22T06:54:30;3.53;;;1.80;;
50757;SDS011;36732;47.980;11.652;2023-02-22T06:56:56;4.70;;;1.75;;
50757;SDS011;36732;47.980;11.652;2023-02-22T06:59:22;4.80;;;1.88;;
50757;SDS011;36732;47.980;11.652;2023-02-22T07:01:47;3.08;;;1.63;;
50757;SDS011;36732;47.980;11.652;2023-02-22T07:04:14;2.78;;;1.75;;
50757;SDS011;36732;47.980;11.652;2023-02-22T07:06:47;4.53;;;1.85;;
50757;SDS011;36732;47.980;11.652;2023-02-22T07:11:40;3.75;;;2.00;;
50757;SDS011;36732;47.980;11.652;2023-02-22T07:14:06;2.30;;;1.95;;
50757;SDS011;36732;47.980;11.652;2023-02-22T07:16:32;4.00;;;1.88;;
50757;SDS011;36732;47.980;11.652;2023-02-22T07:18:58;3.88;;;1.98;;
50757;SDS011;36732;47.980;11.652;2023-02-22T07:21:27;3.85;;;1.73;;
50757;SDS011;36732;47.980;11.652;2023-02-22T07:23:54;4.78;;;2.05;;
50757;SDS011;36732;47.980;11.652;2023-02-22T07:26:22;3.80;;;1.98;;
50757;SDS011;36732;47.980;11.652;2023-02-22T07:28:50;5.20;;;2.10;;
50757;SDS011;36732;47.980;11.652;2023-02-22T07:31:16;5.03;;;2.80;;
50757;SDS011;36732;47.980;11.652;2023-02-22T07:33:42;4.43;;;2.20;;
50757;SDS011;36732;47.980;11.652;2023-02-22T07:36:11;3.72;;;1.98;;
50757;SDS011;36732;47.980;11.652;2023-02-22T07:38:42;4.05;;;1.60;;
50757;SDS011;36732;47.980;11.652;2023-02-22T07:41:09;2.38;;;1.50;;
50757;SDS011;36732;47.980;11.652;2023-02-22T07:43:35;2.30;;;1.65;;
50757;SDS011;36732;47.980;11.652;2023-02-22T07:46:01;2.10;;;1.60;;
50757;SDS011;36732;47.980;11.652;2023-02-22T07:48:28;2.30;;;1.48;;
50757;SDS011;36732;47.980;11.652;2023-02-22T07:50:55;7.50;;;1.90;;
50757;SDS011;36732;47.980;11.652;2023-02-22T07:53:23;3.20;;;1.65;;
50757;SDS011;36732;47.980;11.652;2023-02-22T07:55:54;4.35;;;1.55;;
50757;SDS011;36732;47.980;11.652;2023-02-22T07:58:25;4.00;;;1.90;;
50757;SDS011;36732;47.980;11.652;2023-02-22T08:00:53;3.45;;;1.70;;
50757;SDS011;36732;47.980;11.652;2023-02-22T08:03:21;2.63;;;1.42;;
50757;SDS011;36732;47.980;11.652;2023-02-22T08:05:53;3.95;;;2.42;;
50757;SDS011;36732;47.980;11.652;2023-02-22T08:08:21;2.58;;;1.88;;
50757;SDS011;36732;47.980;11.652;2023-02-22T08:10:48;1.98;;;1.40;;
50757;SDS011;36732;47.980;11.652;2023-02-22T08:13:15;2.72;;;1.45;;
50757;SDS011;36732;47.980;11.652;2023-02-22T08:15:41;2.10;;;1.70;;
50757;SDS011;36732;47.980;11.652;2023-02-22T08:18:12;3.42;;;1.35;;
50757;SDS011;36732;47.980;11.652;2023-02-22T08:20:40;2.95;;;1.65;;
50757;SDS011;36732;47.980;11.652;2023-02-22T08:23:08;4.72;;;2.13;;
50757;SDS011;36732;47.980;11.652;2023-02-22T08:25:36;2.17;;;1.60;;
50757;SDS011;36732;47.980;11.652;2023-02-22T08:28:03;2.28;;;1.80;;
50757;SDS011;36732;47.980;11.652;2023-02-22T08:30:34;4.13;;;1.60;;
50757;SDS011;36732;47.980;11.652;2023-02-22T08:33:01;3.28;;;1.85;;
50757;SDS011;36732;47.980;11.652;2023-02-22T08:35:29;4.05;;;2.22;;
50757;SDS011;36732;47.980;11.652;2023-02-22T08:38:00;5.28;;;2.42;;
50757;SDS011;36732;47.980;11.652;2023-02-22T08:40:31;6.82;;;2.60;;
50757;SDS011;36732;47.980;11.652;2023-02-22T08:42:59;3.28;;;1.80;;
50757;SDS011;36732;47.980;11.652;2023-02-22T08:45:25;4.13;;;1.80;;
50757;SDS011;36732;47.980;11.652;2023-02-22T08:47:51;3.70;;;2.05;;
50757;SDS011;36732;47.980;11.652;2023-02-22T08:50:18;5.00;;;1.80;;
50757;SDS011;36732;47.980;11.652;2023-02-22T08:52:51;4.00;;;2.10;;
50757;SDS011;36732;47.980;11.652;2023-02-22T08:55:22;5.32;;;2.33;;
50757;SDS011;36732;47.980;11.652;2023-02-22T08:57:51;5.13;;;2.00;;
50757;SDS011;36732;47.980;11.652;2023-02-22T09:00:18;3.65;;;1.75;;
50757;SDS011;36732;47.980;11.652;2023-02-22T09:02:45;3.90;;;1.45;;
50757;SDS011;36732;47.980;11.652;2023-02-22T09:05:11;3.95;;;1.13;;
50757;SDS011;36732;47.980;11.652;2023-02-22T09:07:39;3.15;;;1.60;;
50757;SDS011;36732;47.980;11.652;2023-02-22T09:10:06;2.10;;;1.02;;
50757;SDS011;36732;47.980;11.652;2023-02-22T09:12:35;1.65;;;1.20;;
50757;SDS011;36732;47.980;11.652;2023-02-22T09:15:01;2.15;;;0.98;;
50757;SDS011;36732;47.980;11.652;2023-02-22T09:17:27;3.60;;;1.02;;
50757;SDS011;36732;47.980;11.652;2023-02-22T09:19:53;3.05;;;1.00;;
50757;SDS011;36732;47.980;11.652;2023-02-22T09:22:19;1.48;;;1.00;;
50757;SDS011;36732;47.980;11.652;2023-02-22T09:24:44;16.42;;;1.73;;
50757;SDS011;36732;47.980;11.652;2023-02-22T09:27:10;4.15;;;1.00;;
50757;SDS011;36732;47.980;11.652;2023-02-22T09:29:36;1.15;;;0.80;;
50757;SDS011;36732;47.980;11.652;2023-02-22T09:32:03;3.47;;;1.15;;
50757;SDS011;36732;47.980;11.652;2023-02-22T09:34:29;3.50;;;0.80;;
50757;SDS011;36732;47.980;11.652;2023-02-22T09:36:59;1.65;;;0.90;;
50757;SDS011;36732;47.980;11.652;2023-02-22T09:39:25;2.85;;;0.80;;
50757;SDS011;36732;47.980;11.652;2023-02-22T09:47:25;2.42;;;1.27;;
50757;SDS011;36732;47.980;11.652;2023-02-22T09:50:04;2.33;;;0.90;;
50757;SDS011;36732;47.980;11.652;2023-02-22T09:52:46;1.33;;;0.93;;
50757;SDS011;36732;47.980;11.652;2023-02-22T09:57:58;1.02;;;0.80;;
50757;SDS011;36732;47.980;11.652;2023-02-22T10:00:35;1.45;;;0.82;;
50757;SDS011;36732;47.980;11.652;2023-02-22T10:05:59;2.95;;;0.77;;
50757;SDS011;36732;47.980;11.652;2023-02-22T10:08:34;1.05;;;0.82;;
50757;SDS011;36732;47.980;11.652;2023-02-22T10:27:26;5.47;;;1.30;;
50757;SDS011;36732;47.980;11.652;2023-02-22T10:30:01;7.57;;;0.98;;
50757;SDS011;36732;47.980;11.652;2023-02-22T10:32:30;2.50;;;0.65;;
50757;SDS011;36732;47.980;11.652;2023-02-22T10:35:12;1.00;;;0.70;;
50757;SDS011;36732;47.980;11.652;2023-02-22T10:37:53;1.15;;;0.77;;
50757;SDS011;36732;47.980;11.652;2023-02-22T10:40:24;2.97;;;0.80;;
50757;SDS011;36732;47.980;11.652;2023-02-22T10:43:01;2.33;;;0.88;;
50757;SDS011;36732;47.980;11.652;2023-02-22T10:45:30;1.80;;;0.85;;
50757;SDS011;36732;47.980;11.652;2023-02-22T10:48:09;3.53;;;0.80;;
50757;SDS011;36732;47.980;11.652;2023-02-22T10:50:40;0.88;;;0.47;;
50757;SDS011;36732;47.980;11.652;2023-02-22T10:53:08;1.60;;;0.70;;
50757;SDS011;36732;47.980;11.652;2023-02-22T10:55:35;1.85;;;0.68;;
50757;SDS011;36732;47.980;11.652;2023-02-22T10:58:41;1.73;;;0.60;;
50757;SDS011;36732;47.980;11.652;2023-02-22T11:01:40;2.05;;;0.65;;
50757;SDS011;36732;47.980;11.652;2023-02-22T11:04:08;1.80;;;0.70;;
50757;SDS011;36732;47.980;11.652;2023-02-22T11:07:06;1.33;;;0.55;;
50757;SDS011;36732;47.980;11.652;2023-02-22T11:09:45;1.20;;;0.70;;
50757;SDS011;36732;47.980;11.652;2023-02-22T11:12:33;1.17;;;0.70;;
50757;SDS011;36732;47.980;11.652;2023-02-22T11:15:46;1.20;;;0.82;;
50757;SDS011;36732;47.980;11.652;2023-02-22T11:17:48;1.60;;;0.90;;
50757;SDS011;36732;47.980;11.652;2023-02-22T11:20:20;7.28;;;1.20;;
50757;SDS011;36732;47.980;11.652;2023-02-22T11:22:58;1.25;;;0.60;;
50757;SDS011;36732;47.980;11.652;2023-02-22T11:25:31;1.20;;;0.73;;
50757;SDS011;36732;47.980;11.652;2023-02-22T11:30:41;1.70;;;0.70;;
50757;SDS011;36732;47.980;11.652;2023-02-22T11:33:17;0.93;;;0.68;;
50757;SDS011;36732;47.980;11.652;2023-02-22T11:35:48;1.15;;;0.80;;
50757;SDS011;36732;47.980;11.652;2023-02-22T11:38:31;1.33;;;0.70;;
50757;SDS011;36732;47.980;11.652;2023-02-22T11:43:38;1.50;;;0.70;;
50757;SDS011;36732;47.980;11.652;2023-02-22T11:46:08;0.80;;;0.57;;
50757;SDS011;36732;47.980;11.652;2023-02-22T11:48:52;1.25;;;0.60;;
50757;SDS011;36732;47.980;11.652;2023-02-22T12:12:17;3.33;;;0.70;;
50757;SDS011;36732;47.980;11.652;2023-02-22T12:15:07;1.95;;;0.70;;
50757;SDS011;36732;47.980;11.652;2023-02-22T12:18:06;1.08;;;0.50;;
50757;SDS011;36732;47.980;11.652;2023-02-22T12:21:18;2.03;;;0.40;;
50757;SDS011;36732;47.980;11.652;2023-02-22T12:23:49;1.02;;;0.50;;
50757;SDS011;36732;47.980;11.652;2023-02-22T12:26:39;0.75;;;0.60;;
50757;SDS011;36732;47.980;11.652;2023-02-22T12:29:24;0.57;;;0.47;;
50757;SDS011;36732;47.980;11.652;2023-02-22T12:34:58;0.57;;;0.40;;
50757;SDS011;36732;47.980;11.652;2023-02-22T12:40:44;1.42;;;0.80;;
50757;SDS011;36732;47.980;11.652;2023-02-22T12:46:17;1.38;;;0.68;;
50757;SDS011;36732;47.980;11.652;2023-02-22T12:59:58;1.98;;;0.70;;
50757;SDS011;36732;47.980;11.652;2023-02-22T13:02:44;1.98;;;0.65;;
50757;SDS011;36732;47.980;11.652;2023-02-22T13:05:19;1.65;;;0.50;;
50757;SDS011;36732;47.980;11.652;2023-02-22T13:08:01;0.40;;;0.40;;
50757;SDS011;36732;47.980;11.652;2023-02-22T13:10:55;2.35;;;0.50;;
50757;SDS011;36732;47.980;11.652;2023-02-22T13:24:45;0.40;;;0.40;;
50757;SDS011;36732;47.980;11.652;2023-02-22T13:27:27;0.90;;;0.57;;
50757;SDS011;36732;47.980;11.652;2023-02-22T13:30:04;1.35;;;0.60;;
50757;SDS011;36732;47.980;11.652;2023-02-22T13:44:42;2.30;;;0.85;;
50757;SDS011;36732;47.980;11.652;2023-02-22T13:53:24;0.80;;;0.73;;
50757;SDS011;36732;47.980;11.652;2023-02-22T13:55:55;3.35;;;0.60;;
50757;SDS011;36732;47.980;11.652;2023-02-22T13:58:23;0.90;;;0.60;;
50757;SDS011;36732;47.980;11.652;2023-02-22T14:00:51;2.28;;;0.82;;
50757;SDS011;36732;47.980;11.652;2023-02-22T14:03:35;2.47;;;0.60;;
50757;SDS011;36732;47.980;11.652;2023-02-22T14:06:07;1.48;;;0.57;;
50757;SDS011;36732;47.980;11.652;2023-02-22T14:09:06;1.20;;;0.70;;
50757;SDS011;36732;47.980;11.652;2023-02-22T14:16:25;1.00;;;0.60;;
50757;SDS011;36732;47.980;11.652;2023-02-22T14:18:59;0.52;;;0.40;;
50757;SDS011;36732;47.980;11.652;2023-02-22T14:22:03;2.00;;;0.70;;
50757;SDS011;36732;47.980;11.652;2023-02-22T14:24:43;3.38;;;0.93;;
50757;SDS011;36732;47.980;11.652;2023-02-22T14:27:10;4.80;;;0.80;;
50757;SDS011;36732;47.980;11.652;2023-02-22T14:29:47;2.60;;;0.70;;
50757;SDS011;36732;47.980;11.652;2023-02-22T14:32:28;1.87;;;0.80;;
50757;SDS011;36732;47.980;11.652;2023-02-22T14:34:58;1.48;;;0.60;;
50757;SDS011;36732;47.980;11.652;2023-02-22T14:37:34;1.33;;;0.60;;
50757;SDS011;36732;47.980;11.652;2023-02-22T14:42:47;1.80;;;0.80;;
50757;SDS011;36732;47.980;11.652;2023-02-22T14:45:23;1.42;;;0.65;;
50757;SDS011;36732;47.980;11.652;2023-02-22T14:48:15;0.77;;;0.63;;
50757;SDS011;36732;47.980;11.652;2023-02-22T14:51:16;2.70;;;0.80;;
50757;SDS011;36732;47.980;11.652;2023-02-22T14:53:53;0.85;;;0.73;;
50757;SDS011;36732;47.980;11.652;2023-02-22T15:00:25;3.05;;;0.70;;
50757;SDS011;36732;47.980;11.652;2023-02-22T15:03:02;2.67;;;1.05;;
50757;SDS011;36732;47.980;11.652;2023-02-22T15:05:33;2.10;;;0.60;;
50757;SDS011;36732;47.980;11.652;2023-02-22T15:08:04;1.88;;;0.70;;
50757;SDS011;36732;47.980;11.652;2023-02-22T15:10:40;3.75;;;0.90;;
50757;SDS011;36732;47.980;11.652;2023-02-22T15:15:54;2.38;;;0.82;;
50757;SDS011;36732;47.980;11.652;2023-02-22T15:18:28;1.02;;;0.65;;
50757;SDS011;36732;47.980;11.652;2023-02-22T15:21:02;2.28;;;0.93;;
50757;SDS011;36732;47.980;11.652;2023-02-22T15:26:33;1.05;;;0.60;;
50757;SDS011;36732;47.980;11.652;2023-02-22T15:29:25;2.28;;;0.63;;
50757;SDS011;36732;47.980;11.652;2023-02-22T15:32:16;2.42;;;0.73;;
50757;SDS011;36732;47.980;11.652;2023-02-22T15:37:38;2.58;;;0.70;;
50757;SDS011;36732;47.980;11.652;2023-02-22T15:40:07;0.80;;;0.60;;
50757;SDS011;36732;47.980;11.652;2023-02-22T15:42:46;0.80;;;0.60;;
50757;SDS011;36732;47.980;11.652;2023-02-22T15:45:18;1.00;;;0.75;;
50757;SDS011;36732;47.980;11.652;2023-02-22T15:47:49;1.35;;;0.70;;
50757;SDS011;36732;47.980;11.652;2023-02-22T15:53:02;1.13;;;0.60;;
50757;SDS011;36732;47.980;11.652;2023-02-22T15:55:59;1.27;;;0.70;;
50757;SDS011;36732;47.980;11.652;2023-02-22T15:58:27;0.68;;;0.63;;
50757;SDS011;36732;47.980;11.652;2023-02-22T16:00:59;1.38;;;0.70;;
50757;SDS011;36732;47.980;11.652;2023-02-22T16:03:40;2.72;;;0.73;;
50757;SDS011;36732;47.980;11.652;2023-02-22T16:06:13;2.20;;;0.80;;
50757;SDS011;36732;47.980;11.652;2023-02-22T16:08:58;2.08;;;0.65;;
50757;SDS011;36732;47.980;11.652;2023-02-22T16:11:32;2.20;;;0.90;;
50757;SDS011;36732;47.980;11.652;2023-02-22T16:14:14;2.15;;;0.90;;
50757;SDS011;36732;47.980;11.652;2023-02-22T16:16:47;1.30;;;0.70;;
50757;SDS011;36732;47.980;11.652;2023-02-22T16:19:27;1.40;;;0.70;;
50757;SDS011;36732;47.980;11.652;2023-02-22T16:22:01;1.10;;;0.55;;
50757;SDS011;36732;47.980;11.652;2023-02-22T16:24:37;1.02;;;0.65;;
50757;SDS011;36732;47.980;11.652;2023-02-22T16:27:15;1.20;;;0.70;;
50757;SDS011;36732;47.980;11.652;2023-02-22T16:30:02;1.30;;;0.60;;
50757;SDS011;36732;47.980;11.652;2023-02-22T16:32:50;1.92;;;0.80;;
50757;SDS011;36732;47.980;11.652;2023-02-22T16:35:19;1.02;;;0.50;;
50757;SDS011;36732;47.980;11.652;2023-02-22T16:40:45;2.50;;;0.85;;
50757;SDS011;36732;47.980;11.652;2023-02-22T16:43:16;0.65;;;0.50;;
50757;SDS011;36732;47.980;11.652;2023-02-22T16:45:45;1.10;;;0.70;;
50757;SDS011;36732;47.980;11.652;2023-02-22T16:48:18;1.15;;;0.70;;
50757;SDS011;36732;47.980;11.652;2023-02-22T16:50:46;1.08;;;0.70;;
50757;SDS011;36732;47.980;11.652;2023-02-22T16:53:14;0.73;;;0.68;;
50757;SDS011;36732;47.980;11.652;2023-02-22T16:55:44;4.00;;;0.65;;
50757;SDS011;36732;47.980;11.652;2023-02-22T16:58:15;0.80;;;0.80;;
50757;SDS011;36732;47.980;11.652;2023-02-22T17:00:43;1.55;;;0.90;;
50757;SDS011;36732;47.980;11.652;2023-02-22T17:03:10;1.63;;;0.75;;
50757;SDS011;36732;47.980;11.652;2023-02-22T17:05:40;2.78;;;1.02;;
50757;SDS011;36732;47.980;11.652;2023-02-22T17:08:06;1.92;;;0.75;;
50757;SDS011;36732;47.980;11.652;2023-02-22T17:10:32;1.83;;;1.20;;
50757;SDS011;36732;47.980;11.652;2023-02-22T17:12:59;1.20;;;1.00;;
50757;SDS011;36732;47.980;11.652;2023-02-22T17:15:26;2.53;;;1.13;;
50757;SDS011;36732;47.980;11.652;2023-02-22T17:17:57;1.40;;;1.30;;
50757;SDS011;36732;47.980;11.652;2023-02-22T17:20:23;4.20;;;1.42;;
50757;SDS011;36732;47.980;11.652;2023-02-22T17:23:02;1.40;;;1.20;;
50757;SDS011;36732;47.980;11.652;2023-02-22T17:25:39;2.30;;;1.60;;
50757;SDS011;36732;47.980;11.652;2023-02-22T17:28:13;5.90;;;2.85;;
50757;SDS011;36732;47.980;11.652;2023-02-22T17:30:39;4.93;;;3.30;;
50757;SDS011;36732;47.980;11.652;2023-02-22T17:33:06;4.82;;;3.28;;
50757;SDS011;36732;47.980;11.652;2023-02-22T17:35:33;3.92;;;2.65;;